sensor_id;sensor_type;location;lat;lon;timestamp;P1;durP1;ratioP1;P2;durP2;ratioP2
16015;SDS011;8112;53.592;10.184;2023-03-12T00:04:31;7.43;;;5.33;;
16015;SDS011;8112;53.592;10.184;2023-03-12T00:09:34;8.53;;;5.13;;
16015;SDS011;8112;53.592;10.184;2023-03-12T00:14:36;8.47;;;5.67;;
16015;SDS011;8112;53.592;10.184;2023-03-12T00:19:40;9.60;;;6.70;;
16015;SDS011;8112;53.592;10.184;2023-03-12T00:24:42;5.97;;;5.37;;
16015;SDS011;8112;53.592;10.184;2023-03-12T00:29:43;8.60;;;5.20;;
16015;SDS011;8112;53.592;10.184;2023-03-12T00:34:50;6.23;;;5.53;;
16015;SDS011;8112;53.592;10.184;2023-03-12T00:39:52;6.47;;;5.77;;
16015;SDS011;8112;53.592;10.184;2023-03-12T00:44:54;9.63;;;5.90;;
16015;SDS011;8112;53.592;10.184;2023-03-12T00:49:57;8.80;;;6.90;;
16015;SDS011;8112;53.592;10.184;2023-03-12T00:54:59;8.70;;;6.90;;
16015;SDS011;8112;53.592;10.184;2023-03-12T01:00:01;11.67;;;7.47;;
16015;SDS011;8112;53.592;10.184;2023-03-12T01:05:11;10.13;;;7.40;;
16015;SDS011;8112;53.592;10.184;2023-03-12T01:10:14;9.77;;;7.93;;
16015;SDS011;8112;53.592;10.184;2023-03-12T01:15:19;9.53;;;7.20;;
16015;SDS011;8112;53.592;10.184;2023-03-12T01:20:22;13.57;;;7.90;;
16015;SDS011;8112;53.592;10.184;2023-03-12T01:25:24;10.10;;;8.27;;
16015;SDS011;8112;53.592;10.184;2023-03-12T01:30:26;11.93;;;8.00;;
16015;SDS011;8112;53.592;10.184;2023-03-12T01:35:33;10.07;;;7.63;;
16015;SDS011;8112;53.592;10.184;2023-03-12T01:40:36;8.77;;;7.10;;
16015;SDS011;8112;53.592;10.184;2023-03-12T01:51:04;8.17;;;6.00;;
16015;SDS011;8112;53.592;10.184;2023-03-12T01:56:09;9.90;;;6.80;;
16015;SDS011;8112;53.592;10.184;2023-03-12T02:01:14;10.67;;;7.70;;
16015;SDS011;8112;53.592;10.184;2023-03-12T02:06:21;13.97;;;7.23;;
16015;SDS011;8112;53.592;10.184;2023-03-12T02:11:27;9.60;;;6.87;;
16015;SDS011;8112;53.592;10.184;2023-03-12T02:16:29;9.63;;;7.73;;
16015;SDS011;8112;53.592;10.184;2023-03-12T02:21:32;11.83;;;7.93;;
16015;SDS011;8112;53.592;10.184;2023-03-12T02:26:37;9.67;;;7.90;;
16015;SDS011;8112;53.592;10.184;2023-03-12T02:31:42;12.10;;;8.23;;
16015;SDS011;8112;53.592;10.184;2023-03-12T02:36:47;11.20;;;8.40;;
16015;SDS011;8112;53.592;10.184;2023-03-12T02:41:51;11.67;;;9.47;;
16015;SDS011;8112;53.592;10.184;2023-03-12T02:46:58;13.83;;;8.80;;
16015;SDS011;8112;53.592;10.184;2023-03-12T02:52:01;13.10;;;9.60;;
16015;SDS011;8112;53.592;10.184;2023-03-12T02:57:05;13.03;;;8.83;;
16015;SDS011;8112;53.592;10.184;2023-03-12T03:02:08;11.73;;;8.97;;
16015;SDS011;8112;53.592;10.184;2023-03-12T03:07:12;14.40;;;9.57;;
16015;SDS011;8112;53.592;10.184;2023-03-12T03:12:16;15.50;;;10.33;;
16015;SDS011;8112;53.592;10.184;2023-03-12T03:17:18;12.63;;;9.43;;
16015;SDS011;8112;53.592;10.184;2023-03-12T03:22:22;13.47;;;10.73;;
16015;SDS011;8112;53.592;10.184;2023-03-12T03:27:25;12.70;;;10.13;;
16015;SDS011;8112;53.592;10.184;2023-03-12T03:32:27;14.80;;;11.30;;
16015;SDS011;8112;53.592;10.184;2023-03-12T03:37:29;15.67;;;11.63;;
16015;SDS011;8112;53.592;10.184;2023-03-12T03:42:33;17.73;;;12.23;;
16015;SDS011;8112;53.592;10.184;2023-03-12T03:47:35;16.33;;;11.67;;
16015;SDS011;8112;53.592;10.184;2023-03-12T03:52:37;17.87;;;10.77;;
16015;SDS011;8112;53.592;10.184;2023-03-12T03:57:40;12.70;;;10.03;;
16015;SDS011;8112;53.592;10.184;2023-03-12T04:02:43;15.33;;;12.43;;
16015;SDS011;8112;53.592;10.184;2023-03-12T04:07:47;20.17;;;12.40;;
16015;SDS011;8112;53.592;10.184;2023-03-12T04:12:53;14.67;;;12.00;;
16015;SDS011;8112;53.592;10.184;2023-03-12T04:17:55;14.60;;;10.97;;
16015;SDS011;8112;53.592;10.184;2023-03-12T04:22:59;15.40;;;10.80;;
16015;SDS011;8112;53.592;10.184;2023-03-12T04:28:03;14.43;;;10.97;;
16015;SDS011;8112;53.592;10.184;2023-03-12T04:33:07;15.37;;;11.90;;
16015;SDS011;8112;53.592;10.184;2023-03-12T04:38:09;15.90;;;11.33;;
16015;SDS011;8112;53.592;10.184;2023-03-12T04:43:12;14.33;;;11.87;;
16015;SDS011;8112;53.592;10.184;2023-03-12T04:48:15;16.10;;;11.90;;
16015;SDS011;8112;53.592;10.184;2023-03-12T04:53:21;16.43;;;12.53;;
16015;SDS011;8112;53.592;10.184;2023-03-12T04:58:25;15.33;;;12.00;;
16015;SDS011;8112;53.592;10.184;2023-03-12T05:03:27;13.00;;;10.97;;
16015;SDS011;8112;53.592;10.184;2023-03-12T05:08:31;16.50;;;11.80;;
16015;SDS011;8112;53.592;10.184;2023-03-12T05:13:34;12.87;;;10.57;;
16015;SDS011;8112;53.592;10.184;2023-03-12T05:18:35;15.07;;;11.20;;
16015;SDS011;8112;53.592;10.184;2023-03-12T05:23:38;12.70;;;9.50;;
16015;SDS011;8112;53.592;10.184;2023-03-12T05:28:44;16.17;;;10.13;;
16015;SDS011;8112;53.592;10.184;2023-03-12T05:33:46;13.43;;;10.57;;
16015;SDS011;8112;53.592;10.184;2023-03-12T05:38:49;11.80;;;8.73;;
16015;SDS011;8112;53.592;10.184;2023-03-12T05:43:55;14.60;;;9.87;;
16015;SDS011;8112;53.592;10.184;2023-03-12T05:48:58;10.40;;;8.60;;
16015;SDS011;8112;53.592;10.184;2023-03-12T05:54:01;12.13;;;9.27;;
16015;SDS011;8112;53.592;10.184;2023-03-12T05:59:04;11.73;;;8.43;;
16015;SDS011;8112;53.592;10.184;2023-03-12T06:04:07;11.17;;;8.83;;
16015;SDS011;8112;53.592;10.184;2023-03-12T06:09:09;11.07;;;8.27;;
16015;SDS011;8112;53.592;10.184;2023-03-12T06:14:13;10.10;;;8.83;;
16015;SDS011;8112;53.592;10.184;2023-03-12T06:19:15;11.17;;;8.40;;
16015;SDS011;8112;53.592;10.184;2023-03-12T06:24:20;11.07;;;8.63;;
16015;SDS011;8112;53.592;10.184;2023-03-12T06:29:35;10.23;;;8.43;;
16015;SDS011;8112;53.592;10.184;2023-03-12T06:34:37;10.70;;;8.73;;
16015;SDS011;8112;53.592;10.184;2023-03-12T06:39:38;11.63;;;9.43;;
16015;SDS011;8112;53.592;10.184;2023-03-12T06:44:42;10.93;;;8.67;;
16015;SDS011;8112;53.592;10.184;2023-03-12T06:49:43;10.83;;;8.83;;
16015;SDS011;8112;53.592;10.184;2023-03-12T06:54:45;10.30;;;8.13;;
16015;SDS011;8112;53.592;10.184;2023-03-12T06:59:48;14.53;;;8.87;;
16015;SDS011;8112;53.592;10.184;2023-03-12T07:04:54;9.17;;;8.07;;
16015;SDS011;8112;53.592;10.184;2023-03-12T07:09:56;11.73;;;8.70;;
16015;SDS011;8112;53.592;10.184;2023-03-12T07:14:59;12.40;;;9.40;;
16015;SDS011;8112;53.592;10.184;2023-03-12T07:20:01;11.30;;;7.93;;
16015;SDS011;8112;53.592;10.184;2023-03-12T07:25:03;9.03;;;8.20;;
16015;SDS011;8112;53.592;10.184;2023-03-12T07:30:07;8.63;;;7.77;;
16015;SDS011;8112;53.592;10.184;2023-03-12T07:35:10;12.50;;;8.53;;
16015;SDS011;8112;53.592;10.184;2023-03-12T07:40:12;10.47;;;8.00;;
16015;SDS011;8112;53.592;10.184;2023-03-12T07:45:15;9.93;;;7.57;;
16015;SDS011;8112;53.592;10.184;2023-03-12T07:50:17;9.70;;;7.30;;
16015;SDS011;8112;53.592;10.184;2023-03-12T07:55:19;8.87;;;6.33;;
16015;SDS011;8112;53.592;10.184;2023-03-12T08:00:23;11.30;;;7.87;;
16015;SDS011;8112;53.592;10.184;2023-03-12T08:05:25;8.03;;;6.83;;
16015;SDS011;8112;53.592;10.184;2023-03-12T08:10:27;7.47;;;6.70;;
16015;SDS011;8112;53.592;10.184;2023-03-12T08:15:30;7.33;;;6.17;;
16015;SDS011;8112;53.592;10.184;2023-03-12T08:20:32;7.60;;;6.00;;
16015;SDS011;8112;53.592;10.184;2023-03-12T08:25:34;8.50;;;5.87;;
16015;SDS011;8112;53.592;10.184;2023-03-12T08:30:37;10.97;;;6.57;;
16015;SDS011;8112;53.592;10.184;2023-03-12T08:35:39;6.40;;;5.50;;
16015;SDS011;8112;53.592;10.184;2023-03-12T08:40:41;7.07;;;5.30;;
16015;SDS011;8112;53.592;10.184;2023-03-12T08:45:45;6.93;;;5.27;;
16015;SDS011;8112;53.592;10.184;2023-03-12T08:50:46;9.53;;;5.40;;
16015;SDS011;8112;53.592;10.184;2023-03-12T08:55:50;5.17;;;4.67;;
16015;SDS011;8112;53.592;10.184;2023-03-12T09:00:54;5.27;;;4.33;;
16015;SDS011;8112;53.592;10.184;2023-03-12T09:06:03;5.67;;;3.97;;
16015;SDS011;8112;53.592;10.184;2023-03-12T09:11:08;6.77;;;4.63;;
16015;SDS011;8112;53.592;10.184;2023-03-12T09:16:13;4.57;;;4.17;;
16015;SDS011;8112;53.592;10.184;2023-03-12T09:21:15;5.20;;;3.40;;
16015;SDS011;8112;53.592;10.184;2023-03-12T09:26:16;5.43;;;3.53;;
16015;SDS011;8112;53.592;10.184;2023-03-12T09:31:20;5.03;;;3.60;;
16015;SDS011;8112;53.592;10.184;2023-03-12T09:36:22;4.77;;;3.90;;
16015;SDS011;8112;53.592;10.184;2023-03-12T09:41:24;4.33;;;3.33;;
16015;SDS011;8112;53.592;10.184;2023-03-12T09:46:29;5.33;;;3.63;;
16015;SDS011;8112;53.592;10.184;2023-03-12T09:51:37;5.33;;;4.27;;
16015;SDS011;8112;53.592;10.184;2023-03-12T09:56:42;5.37;;;4.13;;
16015;SDS011;8112;53.592;10.184;2023-03-12T10:01:48;5.47;;;3.97;;
16015;SDS011;8112;53.592;10.184;2023-03-12T10:06:54;4.60;;;4.17;;
16015;SDS011;8112;53.592;10.184;2023-03-12T10:12:06;4.83;;;4.40;;
16015;SDS011;8112;53.592;10.184;2023-03-12T10:17:23;4.97;;;3.83;;
16015;SDS011;8112;53.592;10.184;2023-03-12T10:22:42;8.10;;;4.50;;
16015;SDS011;8112;53.592;10.184;2023-03-12T10:27:51;6.17;;;4.03;;
16015;SDS011;8112;53.592;10.184;2023-03-12T10:32:57;7.47;;;4.40;;
16015;SDS011;8112;53.592;10.184;2023-03-12T10:38:03;5.93;;;4.33;;
16015;SDS011;8112;53.592;10.184;2023-03-12T10:43:11;6.90;;;4.13;;
16015;SDS011;8112;53.592;10.184;2023-03-12T10:48:18;4.57;;;4.10;;
16015;SDS011;8112;53.592;10.184;2023-03-12T10:53:22;5.40;;;3.80;;
16015;SDS011;8112;53.592;10.184;2023-03-12T10:58:30;3.97;;;3.50;;
16015;SDS011;8112;53.592;10.184;2023-03-12T11:03:35;6.87;;;4.67;;
16015;SDS011;8112;53.592;10.184;2023-03-12T11:08:37;5.67;;;4.47;;
16015;SDS011;8112;53.592;10.184;2023-03-12T11:13:39;4.13;;;3.73;;
16015;SDS011;8112;53.592;10.184;2023-03-12T11:18:44;9.33;;;4.50;;
16015;SDS011;8112;53.592;10.184;2023-03-12T11:24:02;5.33;;;4.63;;
16015;SDS011;8112;53.592;10.184;2023-03-12T11:29:10;6.93;;;4.40;;
16015;SDS011;8112;53.592;10.184;2023-03-12T11:34:20;5.00;;;4.50;;
16015;SDS011;8112;53.592;10.184;2023-03-12T11:39:25;8.93;;;3.90;;
16015;SDS011;8112;53.592;10.184;2023-03-12T11:44:35;4.47;;;3.60;;
16015;SDS011;8112;53.592;10.184;2023-03-12T11:55:15;3.93;;;3.50;;
16015;SDS011;8112;53.592;10.184;2023-03-12T12:00:31;5.07;;;3.50;;
16015;SDS011;8112;53.592;10.184;2023-03-12T12:05:40;5.73;;;3.60;;
16015;SDS011;8112;53.592;10.184;2023-03-12T12:10:56;7.07;;;3.70;;
16015;SDS011;8112;53.592;10.184;2023-03-12T12:16:08;4.27;;;3.47;;
16015;SDS011;8112;53.592;10.184;2023-03-12T12:21:31;5.07;;;3.20;;
16015;SDS011;8112;53.592;10.184;2023-03-12T12:26:45;7.07;;;3.40;;
16015;SDS011;8112;53.592;10.184;2023-03-12T12:31:53;5.60;;;3.23;;
16015;SDS011;8112;53.592;10.184;2023-03-12T12:37:11;5.37;;;3.40;;
16015;SDS011;8112;53.592;10.184;2023-03-12T12:42:20;4.93;;;2.70;;
16015;SDS011;8112;53.592;10.184;2023-03-12T12:47:29;4.40;;;3.37;;
16015;SDS011;8112;53.592;10.184;2023-03-12T12:52:38;5.87;;;2.80;;
16015;SDS011;8112;53.592;10.184;2023-03-12T12:57:51;6.63;;;2.67;;
16015;SDS011;8112;53.592;10.184;2023-03-12T13:02:56;4.97;;;2.90;;
16015;SDS011;8112;53.592;10.184;2023-03-12T13:08:02;4.90;;;2.47;;
16015;SDS011;8112;53.592;10.184;2023-03-12T13:13:11;5.70;;;2.80;;
16015;SDS011;8112;53.592;10.184;2023-03-12T13:18:20;2.80;;;2.40;;
16015;SDS011;8112;53.592;10.184;2023-03-12T13:23:33;3.33;;;2.77;;
16015;SDS011;8112;53.592;10.184;2023-03-12T13:29:10;6.00;;;2.80;;
16015;SDS011;8112;53.592;10.184;2023-03-12T13:39:49;3.13;;;2.60;;
16015;SDS011;8112;53.592;10.184;2023-03-12T13:44:51;4.33;;;2.60;;
16015;SDS011;8112;53.592;10.184;2023-03-12T13:49:53;2.50;;;2.30;;
16015;SDS011;8112;53.592;10.184;2023-03-12T13:54:59;3.97;;;2.73;;
16015;SDS011;8112;53.592;10.184;2023-03-12T14:00:09;4.00;;;2.33;;
16015;SDS011;8112;53.592;10.184;2023-03-12T14:05:17;3.93;;;2.60;;
16015;SDS011;8112;53.592;10.184;2023-03-12T14:10:24;5.23;;;2.50;;
16015;SDS011;8112;53.592;10.184;2023-03-12T14:15:32;4.80;;;2.60;;
16015;SDS011;8112;53.592;10.184;2023-03-12T14:20:44;5.13;;;3.03;;
16015;SDS011;8112;53.592;10.184;2023-03-12T14:25:54;3.23;;;2.50;;
16015;SDS011;8112;53.592;10.184;2023-03-12T14:30:59;3.57;;;2.80;;
16015;SDS011;8112;53.592;10.184;2023-03-12T14:36:03;2.87;;;2.47;;
16015;SDS011;8112;53.592;10.184;2023-03-12T14:41:11;2.77;;;2.43;;
16015;SDS011;8112;53.592;10.184;2023-03-12T14:46:18;3.77;;;2.50;;
16015;SDS011;8112;53.592;10.184;2023-03-12T14:51:22;4.23;;;3.17;;
16015;SDS011;8112;53.592;10.184;2023-03-12T14:56:27;3.33;;;2.70;;
16015;SDS011;8112;53.592;10.184;2023-03-12T15:01:32;4.03;;;3.20;;
16015;SDS011;8112;53.592;10.184;2023-03-12T15:06:38;5.00;;;3.00;;
16015;SDS011;8112;53.592;10.184;2023-03-12T15:11:50;3.00;;;2.30;;
16015;SDS011;8112;53.592;10.184;2023-03-12T15:16:54;3.90;;;3.20;;
16015;SDS011;8112;53.592;10.184;2023-03-12T15:21:57;4.40;;;2.70;;
16015;SDS011;8112;53.592;10.184;2023-03-12T15:32:22;5.07;;;3.13;;
16015;SDS011;8112;53.592;10.184;2023-03-12T15:37:25;4.10;;;2.97;;
16015;SDS011;8112;53.592;10.184;2023-03-12T15:42:37;4.83;;;3.13;;
16015;SDS011;8112;53.592;10.184;2023-03-12T15:47:41;6.50;;;4.00;;
16015;SDS011;8112;53.592;10.184;2023-03-12T15:52:56;6.53;;;3.67;;
16015;SDS011;8112;53.592;10.184;2023-03-12T15:58:01;4.07;;;3.60;;
16015;SDS011;8112;53.592;10.184;2023-03-12T16:03:04;4.30;;;3.77;;
16015;SDS011;8112;53.592;10.184;2023-03-12T16:08:09;4.70;;;3.97;;
16015;SDS011;8112;53.592;10.184;2023-03-12T16:13:18;4.20;;;3.63;;
16015;SDS011;8112;53.592;10.184;2023-03-12T16:18:21;5.07;;;4.50;;
16015;SDS011;8112;53.592;10.184;2023-03-12T16:23:22;4.67;;;3.70;;
16015;SDS011;8112;53.592;10.184;2023-03-12T16:28:26;5.50;;;4.00;;
16015;SDS011;8112;53.592;10.184;2023-03-12T16:33:27;4.97;;;4.20;;
16015;SDS011;8112;53.592;10.184;2023-03-12T16:38:29;4.30;;;3.90;;
16015;SDS011;8112;53.592;10.184;2023-03-12T16:43:32;4.50;;;4.10;;
16015;SDS011;8112;53.592;10.184;2023-03-12T16:48:36;4.53;;;4.13;;
16015;SDS011;8112;53.592;10.184;2023-03-12T16:53:38;4.90;;;4.40;;
16015;SDS011;8112;53.592;10.184;2023-03-12T16:58:41;5.03;;;4.60;;
16015;SDS011;8112;53.592;10.184;2023-03-12T17:03:43;4.90;;;4.50;;
16015;SDS011;8112;53.592;10.184;2023-03-12T17:08:48;5.73;;;5.23;;
16015;SDS011;8112;53.592;10.184;2023-03-12T17:13:52;5.73;;;5.20;;
16015;SDS011;8112;53.592;10.184;2023-03-12T17:18:55;5.77;;;5.23;;
16015;SDS011;8112;53.592;10.184;2023-03-12T17:23:57;6.17;;;5.57;;
16015;SDS011;8112;53.592;10.184;2023-03-12T17:29:00;5.73;;;5.23;;
16015;SDS011;8112;53.592;10.184;2023-03-12T17:34:02;6.47;;;5.83;;
16015;SDS011;8112;53.592;10.184;2023-03-12T17:39:04;6.17;;;5.67;;
16015;SDS011;8112;53.592;10.184;2023-03-12T17:44:07;5.43;;;4.93;;
16015;SDS011;8112;53.592;10.184;2023-03-12T17:49:10;5.57;;;5.07;;
16015;SDS011;8112;53.592;10.184;2023-03-12T17:54:11;6.17;;;5.67;;
16015;SDS011;8112;53.592;10.184;2023-03-12T17:59:14;8.13;;;6.10;;
16015;SDS011;8112;53.592;10.184;2023-03-12T18:04:17;6.13;;;5.53;;
16015;SDS011;8112;53.592;10.184;2023-03-12T18:09:18;7.63;;;6.83;;
16015;SDS011;8112;53.592;10.184;2023-03-12T18:14:22;7.50;;;6.73;;
16015;SDS011;8112;53.592;10.184;2023-03-12T18:19:23;8.53;;;7.73;;
16015;SDS011;8112;53.592;10.184;2023-03-12T18:24:26;9.63;;;8.63;;
16015;SDS011;8112;53.592;10.184;2023-03-12T18:29:29;8.73;;;7.83;;
16015;SDS011;8112;53.592;10.184;2023-03-12T18:34:30;12.20;;;9.60;;
16015;SDS011;8112;53.592;10.184;2023-03-12T18:39:32;12.20;;;10.40;;
16015;SDS011;8112;53.592;10.184;2023-03-12T18:44:35;12.53;;;10.27;;
16015;SDS011;8112;53.592;10.184;2023-03-12T18:49:37;15.73;;;12.50;;
16015;SDS011;8112;53.592;10.184;2023-03-12T18:54:38;14.93;;;11.17;;
16015;SDS011;8112;53.592;10.184;2023-03-12T18:59:41;13.77;;;11.53;;
16015;SDS011;8112;53.592;10.184;2023-03-12T19:04:45;15.53;;;12.97;;
16015;SDS011;8112;53.592;10.184;2023-03-12T19:09:47;13.67;;;11.37;;
16015;SDS011;8112;53.592;10.184;2023-03-12T19:14:50;17.23;;;13.77;;
16015;SDS011;8112;53.592;10.184;2023-03-12T19:19:51;25.10;;;16.80;;
16015;SDS011;8112;53.592;10.184;2023-03-12T19:24:54;24.57;;;16.17;;
16015;SDS011;8112;53.592;10.184;2023-03-12T19:29:57;23.60;;;17.07;;
16015;SDS011;8112;53.592;10.184;2023-03-12T19:34:59;25.10;;;17.63;;
16015;SDS011;8112;53.592;10.184;2023-03-12T19:40:00;38.67;;;21.73;;
16015;SDS011;8112;53.592;10.184;2023-03-12T19:45:06;38.70;;;22.03;;
16015;SDS011;8112;53.592;10.184;2023-03-12T19:50:09;41.50;;;23.20;;
16015;SDS011;8112;53.592;10.184;2023-03-12T19:55:12;43.57;;;24.10;;
16015;SDS011;8112;53.592;10.184;2023-03-12T20:00:16;39.83;;;23.27;;
16015;SDS011;8112;53.592;10.184;2023-03-12T20:05:18;47.17;;;23.53;;
16015;SDS011;8112;53.592;10.184;2023-03-12T20:10:20;39.77;;;23.43;;
16015;SDS011;8112;53.592;10.184;2023-03-12T20:15:23;40.43;;;23.63;;
16015;SDS011;8112;53.592;10.184;2023-03-12T20:20:25;56.00;;;26.83;;
16015;SDS011;8112;53.592;10.184;2023-03-12T20:25:27;53.53;;;25.83;;
16015;SDS011;8112;53.592;10.184;2023-03-12T20:30:30;51.47;;;23.33;;
16015;SDS011;8112;53.592;10.184;2023-03-12T20:35:31;42.30;;;23.23;;
16015;SDS011;8112;53.592;10.184;2023-03-12T20:40:33;46.73;;;23.97;;
16015;SDS011;8112;53.592;10.184;2023-03-12T20:45:36;43.77;;;24.80;;
16015;SDS011;8112;53.592;10.184;2023-03-12T20:50:38;40.93;;;22.47;;
16015;SDS011;8112;53.592;10.184;2023-03-12T20:55:40;39.43;;;20.40;;
16015;SDS011;8112;53.592;10.184;2023-03-12T21:00:43;35.97;;;19.83;;
16015;SDS011;8112;53.592;10.184;2023-03-12T21:05:50;36.20;;;19.87;;
16015;SDS011;8112;53.592;10.184;2023-03-12T21:10:53;42.27;;;20.33;;
16015;SDS011;8112;53.592;10.184;2023-03-12T21:15:56;35.87;;;18.27;;
16015;SDS011;8112;53.592;10.184;2023-03-12T21:20:59;40.97;;;18.20;;
16015;SDS011;8112;53.592;10.184;2023-03-12T21:26:03;39.43;;;16.97;;
16015;SDS011;8112;53.592;10.184;2023-03-12T21:31:08;35.37;;;15.73;;
16015;SDS011;8112;53.592;10.184;2023-03-12T21:36:12;33.80;;;14.73;;
16015;SDS011;8112;53.592;10.184;2023-03-12T21:41:15;38.23;;;15.37;;
16015;SDS011;8112;53.592;10.184;2023-03-12T21:46:19;31.20;;;14.57;;
16015;SDS011;8112;53.592;10.184;2023-03-12T21:51:23;30.53;;;12.50;;
16015;SDS011;8112;53.592;10.184;2023-03-12T21:56:26;25.27;;;11.73;;
16015;SDS011;8112;53.592;10.184;2023-03-12T22:01:30;30.63;;;13.20;;
16015;SDS011;8112;53.592;10.184;2023-03-12T22:06:32;31.63;;;13.20;;
16015;SDS011;8112;53.592;10.184;2023-03-12T22:11:34;29.50;;;11.70;;
16015;SDS011;8112;53.592;10.184;2023-03-12T22:16:37;31.40;;;11.80;;
16015;SDS011;8112;53.592;10.184;2023-03-12T22:21:38;33.23;;;12.20;;
16015;SDS011;8112;53.592;10.184;2023-03-12T22:26:41;26.90;;;11.10;;
16015;SDS011;8112;53.592;10.184;2023-03-12T22:31:44;28.47;;;11.30;;
16015;SDS011;8112;53.592;10.184;2023-03-12T22:36:46;33.67;;;11.43;;
16015;SDS011;8112;53.592;10.184;2023-03-12T22:41:48;23.33;;;10.30;;
16015;SDS011;8112;53.592;10.184;2023-03-12T22:46:52;29.73;;;12.67;;
16015;SDS011;8112;53.592;10.184;2023-03-12T22:51:53;25.17;;;11.97;;
16015;SDS011;8112;53.592;10.184;2023-03-12T22:56:55;22.77;;;11.63;;
16015;SDS011;8112;53.592;10.184;2023-03-12T23:01:58;25.83;;;12.80;;
16015;SDS011;8112;53.592;10.184;2023-03-12T23:07:00;26.13;;;11.87;;
16015;SDS011;8112;53.592;10.184;2023-03-12T23:12:01;25.50;;;12.87;;
16015;SDS011;8112;53.592;10.184;2023-03-12T23:17:05;27.93;;;12.83;;
16015;SDS011;8112;53.592;10.184;2023-03-12T23:22:06;29.37;;;12.23;;
16015;SDS011;8112;53.592;10.184;2023-03-12T23:27:08;32.47;;;11.63;;
16015;SDS011;8112;53.592;10.184;2023-03-12T23:32:12;29.30;;;11.37;;
16015;SDS011;8112;53.592;10.184;2023-03-12T23:37:13;22.90;;;10.30;;
16015;SDS011;8112;53.592;10.184;2023-03-12T23:42:15;29.30;;;10.47;;
16015;SDS011;8112;53.592;10.184;2023-03-12T23:47:18;25.63;;;9.30;;
16015;SDS011;8112;53.592;10.184;2023-03-12T23:52:20;24.00;;;9.17;;
16015;SDS011;8112;53.592;10.184;2023-03-12T23:57:21;24.53;;;8.80;;
